Time;durP1;ratioP1;P1;durP2;ratioP2;P2;SDS_P1;SDS_P2;PMS_P1;PMS_P2;Temp;Humidity;BMP_temperature;BMP_pressure;BME280_temperature;BME280_humidity;BME280_pressure;Samples;Min_cycle;Max_cycle;Signal;HPM_P1;HPM_P2
2022/12/22 03:27:14;;;;;;;114.68;62.17;;;1.50;99.90;;;;;;5029616;28;20083;-76
2022/12/22 03:29:39;;;;;;;;;;;1.40;99.90;;;;;;5028096;28;20631;-76
2022/12/22 03:32:05;;;;;;;125.95;62.40;;;1.50;99.90;;;;;;5027995;28;19940;-77
2022/12/22 03:34:31;;;;;;;;;;;1.50;99.90;;;;;;5028129;28;20052;-77
2022/12/22 03:36:56;;;;;;;115.22;58.60;;;1.50;99.90;;;;;;5027845;28;19952;-77
2022/12/22 03:39:22;;;;;;;;;;;1.50;99.90;;;;;;5028305;28;20030;-77
2022/12/22 03:47:15;;;;;;;119.70;63.50;;;1.50;99.90;;;;;;5029972;28;20394;-76
2022/12/22 03:49:41;;;;;;;;;;;1.50;99.90;;;;;;5027820;28;20033;-77
2022/12/22 03:52:07;;;;;;;118.43;62.22;;;1.50;99.90;;;;;;5027747;28;20370;-77
2022/12/22 03:54:32;;;;;;;;;;;1.50;99.90;;;;;;5044683;28;20055;-76
2022/12/22 03:56:58;;;;;;;112.65;60.75;;;1.50;99.90;;;;;;5027743;28;19975;-76
2022/12/22 03:59:23;;;;;;;;;;;1.50;99.90;;;;;;5045128;28;20505;-77
2022/12/22 04:01:51;;;;;;;113.93;59.03;;;1.40;99.90;;;;;;5027426;28;19916;-76
2022/12/22 04:04:19;;;;;;;106.18;59.88;;;1.40;99.90;;;;;;5027635;28;20052;-76
2022/12/22 04:06:45;;;;;;;114.07;60.60;;;1.40;99.90;;;;;;5027750;28;20537;-77
2022/12/22 04:09:11;;;;;;;111.50;62.55;;;1.40;99.90;;;;;;5028807;28;20036;-77
2022/12/22 04:14:22;;;;;;;108.22;62.10;;;1.40;99.90;;;;;;5032623;28;19967;-76
2022/12/22 04:16:48;;;;;;;115.28;64.85;;;1.40;99.90;;;;;;5031044;28;20156;-77
2022/12/22 04:19:14;;;;;;;;;;;1.40;99.90;;;;;;5032978;28;20090;-77
2022/12/22 04:21:41;;;;;;;110.72;59.28;;;1.40;99.90;;;;;;5030948;28;19909;-77
2022/12/22 04:24:07;;;;;;;112.20;62.25;;;1.40;99.90;;;;;;5032653;28;20034;-77
2022/12/22 04:26:33;;;;;;;111.40;62.03;;;1.40;99.90;;;;;;5031252;28;20026;-78
2022/12/22 04:28:59;;;;;;;110.35;61.33;;;1.40;99.90;;;;;;5032432;28;20034;-76
2022/12/22 04:31:25;;;;;;;;;;;1.40;99.90;;;;;;5033445;28;20085;-77
2022/12/22 04:33:53;;;;;;;108.22;58.40;;;1.40;99.90;;;;;;5031915;28;19917;-77
2022/12/22 04:36:19;;;;;;;107.82;61.13;;;1.40;99.90;;;;;;5031770;28;20030;-77
2022/12/22 04:38:45;;;;;;;;;;;1.40;99.90;;;;;;5033207;28;20026;-77
2022/12/22 04:41:10;;;;;;;107.40;56.70;;;1.50;99.90;;;;;;5031445;28;20016;-77
2022/12/22 04:43:36;;;;;;;;;;;1.50;99.90;;;;;;5031576;28;20108;-77
2022/12/22 04:46:02;;;;;;;108.47;57.22;;;1.50;99.90;;;;;;5031175;28;19908;-77
2022/12/22 04:48:28;;;;;;;;;;;1.50;99.90;;;;;;5032860;28;20057;-77
2022/12/22 04:50:56;;;;;;;109.68;57.75;;;1.60;99.90;;;;;;5032717;28;19913;-77
2022/12/22 04:53:23;;;;;;;104.75;58.90;;;1.60;99.90;;;;;;5030610;28;20045;-76
2022/12/22 04:55:53;;;;;;;106.30;57.88;;;1.60;99.90;;;;;;5030838;28;20524;-77
2022/12/22 04:58:19;;;;;;;102.57;56.28;;;1.60;99.90;;;;;;5031005;28;20084;-76
2022/12/22 05:00:45;;;;;;;;;;;1.60;99.90;;;;;;5030477;28;20022;-77
2022/12/22 05:03:11;;;;;;;104.35;58.08;;;1.60;99.90;;;;;;5029539;28;20008;-77
2022/12/22 05:05:36;;;;;;;;;;;1.60;99.90;;;;;;5032102;28;20490;-77
2022/12/22 05:08:05;;;;;;;100.70;53.08;;;1.50;99.90;;;;;;5030505;28;20301;-77
2022/12/22 05:10:31;;;;;;;97.38;51.55;;;1.60;99.90;;;;;;5030393;28;20116;-77
2022/12/22 05:12:59;;;;;;;;;;;1.60;99.90;;;;;;5030677;28;20180;-77
2022/12/22 05:15:28;;;;;;;102.40;55.08;;;1.60;99.90;;;;;;5030570;28;20332;-76
2022/12/22 05:17:54;;;;;;;118.80;61.42;;;1.60;99.90;;;;;;5029882;28;20175;-76
2022/12/22 05:20:20;;;;;;;110.18;59.83;;;1.70;99.90;;;;;;5030118;28;20523;-77
2022/12/22 05:22:46;;;;;;;;;;;1.70;99.90;;;;;;5031048;28;20033;-78
2022/12/22 05:25:19;;;;;;;109.05;55.90;;;1.70;99.90;;;;;;5031352;28;19905;-77
2022/12/22 05:27:49;;;;;;;125.63;71.45;;;1.70;99.90;;;;;;5046659;28;20140;-76
2022/12/22 05:30:16;;;;;;;123.45;68.30;;;1.80;99.90;;;;;;5028942;28;20053;-77
2022/12/22 05:32:43;;;;;;;127.85;69.80;;;1.80;99.90;;;;;;5028848;28;20125;-76
2022/12/22 05:35:09;;;;;;;114.45;63.25;;;1.80;99.90;;;;;;5028689;28;20025;-77
2022/12/22 05:37:35;;;;;;;121.13;62.72;;;1.80;99.90;;;;;;5045408;28;20046;-77
2022/12/22 05:40:00;;;;;;;;;;;1.80;99.90;;;;;;5046469;28;20025;-76
2022/12/22 05:42:35;;;;;;;115.38;60.38;;;1.80;99.90;;;;;;5030035;28;20237;-76
2022/12/22 05:45:14;;;;;;;109.82;59.58;;;1.80;99.90;;;;;;5028930;28;20375;-76
2022/12/22 05:47:40;;;;;;;103.75;55.90;;;1.80;99.90;;;;;;5029906;28;20025;-75
2022/12/22 05:50:08;;;;;;;99.28;54.78;;;1.80;99.90;;;;;;5030074;28;20026;-77
2022/12/22 05:52:34;;;;;;;105.07;56.00;;;1.80;99.90;;;;;;5028587;28;20029;-78
2022/12/22 05:54:59;;;;;;;;;;;1.80;99.90;;;;;;5029096;28;20040;-78
2022/12/22 05:57:25;;;;;;;107.22;57.22;;;1.90;99.90;;;;;;5029970;28;19909;-77
2022/12/22 05:59:50;;;;;;;;;;;1.90;99.90;;;;;;5045804;28;20067;-79
2022/12/22 06:02:16;;;;;;;119.50;60.47;;;1.90;99.90;;;;;;5029197;28;19915;-78
2022/12/22 06:04:42;;;;;;;;;;;1.90;99.90;;;;;;5047545;28;20029;-76
2022/12/22 06:07:07;;;;;;;124.68;60.80;;;1.90;99.90;;;;;;5031237;28;19913;-76
2022/12/22 06:09:33;;;;;;;;;;;1.90;99.90;;;;;;5047201;28;20485;-75
2022/12/22 06:11:59;;;;;;;118.90;61.00;;;1.90;99.90;;;;;;5029972;28;19921;-76
2022/12/22 06:14:24;;;;;;;113.93;61.95;;;1.90;99.90;;;;;;5028959;28;20098;-76
2022/12/22 06:16:50;;;;;;;;;;;1.90;99.90;;;;;;5030400;28;20478;-75
2022/12/22 06:19:15;;;;;;;110.13;57.15;;;1.90;99.90;;;;;;5045489;28;20301;-76
2022/12/22 06:21:41;;;;;;;;;;;1.90;99.90;;;;;;5028486;28;20405;-76
2022/12/22 06:24:07;;;;;;;104.70;54.72;;;1.90;99.90;;;;;;5028613;28;19909;-76
2022/12/22 06:26:33;;;;;;;101.63;52.88;;;1.90;99.90;;;;;;5028925;28;20049;-78
2022/12/22 06:28:58;;;;;;;;;;;1.90;99.90;;;;;;5029584;28;20525;-76
2022/12/22 06:31:24;;;;;;;100.97;50.97;;;1.90;99.90;;;;;;5031229;28;19916;-76
2022/12/22 06:33:49;;;;;;;;;;;1.90;99.90;;;;;;5031285;28;20108;-76
2022/12/22 06:36:15;;;;;;;97.72;51.50;;;1.90;99.90;;;;;;5030986;28;19991;-78
2022/12/22 06:38:41;;;;;;;;;;;1.90;99.90;;;;;;5045735;28;20124;-76
2022/12/22 06:41:06;;;;;;;99.20;50.33;;;1.90;99.90;;;;;;5030436;28;19912;-76
2022/12/22 06:43:32;;;;;;;;;;;1.90;99.90;;;;;;5030088;28;20022;-76
2022/12/22 06:45:57;;;;;;;147.85;76.15;;;1.80;99.90;;;;;;5030383;28;19908;-75
2022/12/22 06:48:23;;;;;;;;;;;1.90;99.90;;;;;;5031018;28;20036;-75
2022/12/22 06:50:49;;;;;;;100.72;52.38;;;2.00;99.90;;;;;;5030204;28;19908;-75
2022/12/22 06:53:15;;;;;;;;;;;1.90;99.90;;;;;;5045825;28;20525;-75
2022/12/22 06:55:40;;;;;;;110.72;55.35;;;1.90;99.90;;;;;;5027537;28;19916;-75
2022/12/22 06:58:06;;;;;;;;;;;2.00;99.90;;;;;;5028695;28;20075;-76
2022/12/22 07:00:33;;;;;;;93.90;47.72;;;2.00;99.90;;;;;;5027723;28;19909;-77
2022/12/22 07:02:58;;;;;;;98.47;50.75;;;2.00;99.90;;;;;;5043650;28;20043;-77
2022/12/22 07:05:24;;;;;;;;;;;2.00;99.90;;;;;;5028448;28;20029;-75
2022/12/22 07:07:50;;;;;;;99.07;49.67;;;2.00;99.90;;;;;;5029144;28;19909;-77
2022/12/22 07:10:16;;;;;;;105.55;49.88;;;2.00;99.90;;;;;;5029677;28;20021;-77
2022/12/22 07:12:42;;;;;;;;;;;2.10;99.90;;;;;;5029780;28;20055;-75
2022/12/22 07:15:09;;;;;;;129.52;57.67;;;2.10;99.90;;;;;;5029138;28;20447;-76
2022/12/22 07:17:35;;;;;;;111.75;57.15;;;2.10;99.90;;;;;;5046533;28;20053;-76
2022/12/22 07:20:00;;;;;;;;;;;2.10;99.90;;;;;;5030728;28;20068;-76
2022/12/22 07:22:26;;;;;;;94.55;47.70;;;2.20;99.90;;;;;;5030348;28;19909;-77
2022/12/22 07:24:51;;;;;;;;;;;2.30;99.90;;;;;;5029669;28;20025;-76
2022/12/22 07:27:17;;;;;;;83.88;44.35;;;2.30;99.90;;;;;;5028351;28;19940;-76
2022/12/22 07:29:43;;;;;;;;;;;2.30;99.90;;;;;;5031133;28;20033;-76
2022/12/22 07:32:09;;;;;;;83.82;41.05;;;2.40;99.90;;;;;;5032717;28;20020;-76
2022/12/22 07:34:34;;;;;;;;;;;2.40;99.90;;;;;;5032644;28;20036;-77
2022/12/22 07:37:00;;;;;;;82.80;44.65;;;2.40;99.90;;;;;;5031031;28;19911;-77
2022/12/22 07:39:25;;;;;;;;;;;2.40;99.90;;;;;;5031579;28;20106;-77
2022/12/22 07:44:35;;;;;;;84.03;46.15;;;2.50;99.90;;;;;;5031144;28;20035;-79
2022/12/22 07:47:01;;;;;;;;;;;2.50;99.90;;;;;;5034698;28;20030;-76
2022/12/22 07:52:11;;;;;;;84.30;42.63;;;2.50;99.90;;;;;;5034644;28;20094;-77
2022/12/22 07:54:36;;;;;;;;;;;2.50;99.90;;;;;;5033253;28;20033;-76
2022/12/22 07:57:02;;;;;;;76.45;36.90;;;2.60;99.90;;;;;;5031639;28;19999;-76
2022/12/22 07:59:27;;;;;;;;;;;2.60;99.90;;;;;;5033429;28;20033;-77
2022/12/22 08:01:53;;;;;;;60.35;32.97;;;2.60;99.90;;;;;;5031901;28;20014;-77
2022/12/22 08:04:19;;;;;;;;;;;2.70;99.90;;;;;;5033140;28;20035;-76
2022/12/22 08:06:44;;;;;;;68.38;34.35;;;2.70;99.90;;;;;;5031634;28;19909;-76
2022/12/22 08:09:13;;;;;;;;;;;2.70;99.90;;;;;;5048946;28;20398;-76
2022/12/22 08:11:38;;;;;;;76.32;39.20;;;2.80;99.90;;;;;;5032623;28;19909;-77
2022/12/22 08:14:04;;;;;;;;;;;2.80;99.90;;;;;;5033549;28;20044;-76
2022/12/22 08:16:30;;;;;;;74.53;36.08;;;2.80;99.90;;;;;;5030972;28;19909;-76
2022/12/22 08:18:56;;;;;;;80.70;40.85;;;2.80;99.90;;;;;;5033312;28;20029;-79
2022/12/22 08:21:22;;;;;;;81.85;40.78;;;2.90;99.90;;;;;;5032236;28;20026;-78
2022/12/22 08:23:48;;;;;;;75.55;39.88;;;2.90;99.90;;;;;;5032693;28;20116;-76
2022/12/22 08:26:15;;;;;;;;;;;3.00;99.90;;;;;;5031389;28;20116;-75
2022/12/22 08:28:45;;;;;;;;;;;3.00;99.90;;;;;;5032575;28;19909;-76
2022/12/22 08:31:11;;;;;;;81.90;41.55;;;3.00;99.90;;;;;;5032052;28;19913;-77
2022/12/22 08:33:36;;;;;;;;;;;3.10;99.90;;;;;;5047751;28;20043;-77
2022/12/22 08:36:02;;;;;;;80.70;38.20;;;3.10;99.90;;;;;;5030839;28;19909;-76
2022/12/22 08:38:29;;;;;;;;;;;3.20;99.90;;;;;;5031166;28;20036;-77
2022/12/22 08:40:54;;;;;;;86.97;41.50;;;3.30;99.90;;;;;;5030696;28;20377;-77
2022/12/22 08:43:20;;;;;;;;;;;3.30;99.90;;;;;;5032301;28;20044;-76
2022/12/22 08:45:46;;;;;;;75.70;37.97;;;3.30;99.90;;;;;;5032701;28;19916;-77
2022/12/22 08:48:12;;;;;;;73.63;38.10;;;3.40;99.90;;;;;;5046940;28;20060;-76
2022/12/22 08:50:37;;;;;;;;;;;3.40;99.90;;;;;;5047465;28;20065;-76
2022/12/22 08:53:05;;;;;;;82.00;39.47;;;3.40;99.90;;;;;;5030221;28;19912;-76
2022/12/22 08:55:30;;;;;;;90.03;44.28;;;3.50;99.90;;;;;;5031442;28;20057;-76
2022/12/22 08:57:56;;;;;;;;;;;3.60;99.90;;;;;;5030929;28;20478;-77
2022/12/22 09:00:22;;;;;;;67.28;33.42;;;3.70;99.90;;;;;;5031490;28;19905;-76
2022/12/22 09:02:48;;;;;;;64.63;34.65;;;3.70;99.90;;;;;;5031554;28;20024;-76
2022/12/22 09:05:13;;;;;;;;;;;3.80;99.90;;;;;;5030278;28;20469;-76
2022/12/22 09:07:40;;;;;;;63.90;32.95;;;3.90;99.90;;;;;;5030326;28;19912;-77
2022/12/22 09:10:07;;;;;;;61.72;32.38;;;3.90;99.90;;;;;;5047099;28;20470;-76
2022/12/22 09:12:33;;;;;;;61.83;33.80;;;4.00;99.90;;;;;;5031235;28;20059;-76
2022/12/22 09:14:59;;;;;;;61.58;31.23;;;3.90;99.90;;;;;;5030226;28;20191;-77
2022/12/22 09:17:25;;;;;;;54.20;29.20;;;3.90;99.90;;;;;;5030188;28;20029;-76
2022/12/22 09:19:51;;;;;;;;;;;3.90;99.90;;;;;;5031589;28;20034;-77
2022/12/22 09:22:16;;;;;;;62.60;31.27;;;3.90;99.90;;;;;;5029890;28;19916;-77
2022/12/22 09:24:42;;;;;;;;;;;3.90;99.90;;;;;;5030281;28;20026;-76
2022/12/22 09:27:08;;;;;;;64.85;31.88;;;3.90;99.90;;;;;;5032503;28;19909;-76
2022/12/22 09:29:35;;;;;;;;;;;3.90;99.90;;;;;;5032787;28;20064;-79
2022/12/22 09:32:01;;;;;;;67.63;30.08;;;3.90;99.90;;;;;;5032843;28;20008;-78
2022/12/22 09:34:26;;;;;;;;;;;4.00;99.90;;;;;;5032595;28;20116;-76
2022/12/22 09:36:52;;;;;;;57.33;29.23;;;4.00;99.90;;;;;;5029739;28;19960;-76
2022/12/22 09:39:17;;;;;;;;;;;4.10;99.90;;;;;;5030363;28;20396;-76
2022/12/22 09:41:55;;;;;;;55.90;26.70;;;4.10;99.90;;;;;;5030805;28;19909;-77
2022/12/22 09:44:32;;;;;;;55.92;28.42;;;4.10;99.90;;;;;;5046362;28;20022;-76
2022/12/22 09:47:01;;;;;;;51.45;27.63;;;4.20;99.90;;;;;;5030136;28;20113;-76
2022/12/22 09:49:27;;;;;;;51.70;26.98;;;4.20;99.90;;;;;;5030249;28;20053;-76
2022/12/22 09:51:56;;;;;;;49.95;29.02;;;4.20;99.90;;;;;;5030377;28;20034;-76
2022/12/22 09:54:24;;;;;;;59.70;27.65;;;4.30;99.90;;;;;;5030101;28;20049;-76
2022/12/22 09:56:50;;;;;;;56.10;29.15;;;4.30;99.90;;;;;;5031341;28;20889;-77
2022/12/22 09:59:16;;;;;;;;;;;4.20;99.90;;;;;;5049009;28;20026;-77
2022/12/22 10:02:11;;;;;;;54.90;27.17;;;4.20;99.90;;;;;;5031642;28;19905;-76
2022/12/22 10:05:09;;;;;;;50.08;25.70;;;4.20;99.90;;;;;;5033298;28;20263;-77
2022/12/22 10:07:41;;;;;;;49.33;27.05;;;4.10;99.90;;;;;;5006501;28;20033;-76
2022/12/22 10:10:23;;;;;;;48.03;26.52;;;4.10;99.90;;;;;;5032692;28;20407;-77
2022/12/22 10:12:49;;;;;;;54.95;28.52;;;4.10;99.90;;;;;;5031862;28;20061;-77
2022/12/22 10:15:15;;;;;;;58.45;29.48;;;4.20;99.90;;;;;;5046593;28;20134;-76
2022/12/22 10:17:41;;;;;;;;;;;4.20;99.90;;;;;;5030671;28;20765;-78
2022/12/22 10:20:07;;;;;;;53.53;27.17;;;4.20;99.90;;;;;;5030308;28;19909;-77
2022/12/22 10:22:34;;;;;;;;;;;4.20;99.90;;;;;;5028921;28;20025;-76
2022/12/22 10:25:03;;;;;;;51.13;25.00;;;4.30;99.90;;;;;;5028670;28;19912;-76
2022/12/22 10:27:32;;;;;;;49.78;25.77;;;4.30;99.90;;;;;;5029775;28;20041;-76
2022/12/22 10:30:20;;;;;;;53.00;29.60;;;4.20;99.90;;;;;;5028059;28;20450;-77
2022/12/22 10:33:04;;;;;;;51.83;27.30;;;4.20;99.90;;;;;;5029210;28;20041;-77
2022/12/22 10:35:47;;;;;;;54.97;28.48;;;4.20;99.90;;;;;;5027863;28;20032;-76
2022/12/22 10:38:32;;;;;;;58.47;31.27;;;4.20;99.90;;;;;;5027860;28;20025;-77
2022/12/22 10:41:12;;;;;;;70.35;36.80;;;4.20;99.90;;;;;;5027966;28;20030;-76
2022/12/22 10:44:05;;;;;;;71.40;40.33;;;4.20;99.90;;;;;;5027797;28;20037;-77
2022/12/22 10:46:49;;;;;;;75.90;40.72;;;4.20;99.90;;;;;;5028401;28;20044;-77
2022/12/22 10:49:35;;;;;;;110.70;54.97;;;4.30;99.90;;;;;;5029117;28;20029;-76
2022/12/22 10:52:33;;;;;;;87.55;47.20;;;4.40;99.90;;;;;;5028159;28;20037;-76
2022/12/22 10:55:19;;;;;;;73.90;37.80;;;4.50;99.90;;;;;;5012633;28;20045;-77
2022/12/22 10:57:45;;;;;;;65.65;35.08;;;4.50;99.90;;;;;;5044756;28;20549;-76
2022/12/22 11:00:23;;;;;;;;;;;4.60;99.90;;;;;;5029512;28;20029;-76
2022/12/22 11:02:53;;;;;;;74.13;37.10;;;4.60;99.90;;;;;;5029206;28;19919;-76
2022/12/22 11:05:19;;;;;;;69.13;37.75;;;4.80;99.90;;;;;;5045744;28;20045;-76
2022/12/22 11:07:48;;;;;;;;;;;4.70;99.90;;;;;;5030198;28;20132;-78
2022/12/22 11:10:17;;;;;;;69.70;35.90;;;4.70;99.90;;;;;;5030305;28;20419;-77
2022/12/22 11:13:01;;;;;;;69.65;35.55;;;4.70;99.90;;;;;;5030101;28;20084;-77
2022/12/22 11:15:37;;;;;;;60.75;35.90;;;4.70;99.90;;;;;;5031043;28;20025;-76
2022/12/22 11:18:23;;;;;;;62.30;34.65;;;4.70;99.90;;;;;;5031499;28;20029;-76
2022/12/22 11:21:01;;;;;;;62.83;35.75;;;4.80;99.90;;;;;;5031574;28;20465;-76
2022/12/22 11:23:34;;;;;;;64.72;37.53;;;4.80;99.90;;;;;;5030939;28;20440;-77
2022/12/22 11:26:22;;;;;;;61.25;35.15;;;4.80;99.90;;;;;;5029745;28;20557;-77
2022/12/22 11:29:03;;;;;;;66.20;36.95;;;4.80;99.90;;;;;;5031123;28;20029;-77
2022/12/22 11:31:55;;;;;;;65.97;36.75;;;4.80;99.90;;;;;;5030055;28;20034;-77
2022/12/22 11:34:35;;;;;;;68.45;36.92;;;4.80;99.90;;;;;;5028046;28;20049;-77
2022/12/22 11:37:23;;;;;;;70.55;38.95;;;4.80;99.90;;;;;;5031128;28;20478;-77
2022/12/22 11:40:14;;;;;;;73.47;40.63;;;4.70;99.90;;;;;;5030552;28;20702;-77
2022/12/22 11:42:39;;;;;;;74.88;41.92;;;4.70;99.90;;;;;;5029693;28;20134;-77
2022/12/22 11:45:23;;;;;;;;;;;4.70;99.90;;;;;;5031534;28;20502;-77
2022/12/22 11:48:08;;;;;;;80.50;42.10;;;4.80;99.90;;;;;;5032483;28;19972;-77
2022/12/22 11:50:40;;;;;;;74.93;39.42;;;4.90;99.90;;;;;;5032166;28;20021;-78
2022/12/22 11:53:34;;;;;;;73.53;39.15;;;4.90;99.90;;;;;;5028679;28;20049;-77
2022/12/22 11:56:22;;;;;;;66.50;35.92;;;4.80;99.90;;;;;;5030015;28;20042;-77
2022/12/22 11:59:00;;;;;;;69.22;39.75;;;4.90;99.90;;;;;;5029355;28;20029;-77
2022/12/22 12:01:50;;;;;;;66.00;36.70;;;4.90;99.90;;;;;;5029277;28;20029;-77
2022/12/22 12:04:25;;;;;;;69.13;37.90;;;5.00;99.90;;;;;;5030039;28;20125;-77
2022/12/22 12:07:01;;;;;;;66.93;37.55;;;5.10;99.90;;;;;;5028759;28;20113;-76
2022/12/22 12:09:27;;;;;;;;;;;5.20;99.90;;;;;;5029133;28;20171;-77
2022/12/22 12:12:10;;;;;;;59.15;33.00;;;5.20;99.90;;;;;;5029713;28;20012;-77
2022/12/22 12:15:11;;;;;;;68.80;35.65;;;5.10;99.90;;;;;;5028925;28;20513;-78
2022/12/22 12:17:57;;;;;;;67.45;33.67;;;5.10;99.90;;;;;;5029760;28;20029;-77
2022/12/22 12:20:28;;;;;;;67.35;34.10;;;5.00;99.90;;;;;;5008951;28;20080;-77
2022/12/22 12:23:15;;;;;;;63.05;35.33;;;5.00;99.90;;;;;;5028877;28;20049;-77
2022/12/22 12:26:06;;;;;;;68.32;33.63;;;5.00;99.90;;;;;;5028851;28;20040;-77
2022/12/22 12:28:56;;;;;;;60.15;33.20;;;5.00;99.90;;;;;;5023131;28;20648;-77
2022/12/22 12:31:31;;;;;;;63.80;31.92;;;5.00;99.90;;;;;;5029731;28;20029;-77
2022/12/22 12:34:00;;;;;;;57.60;31.17;;;4.90;99.90;;;;;;5034141;28;20119;-77
2022/12/22 12:36:38;;;;;;;66.05;32.42;;;4.90;99.90;;;;;;5032800;28;20029;-77
2022/12/22 12:39:16;;;;;;;75.18;44.60;;;4.90;99.90;;;;;;5031016;28;20037;-77
2022/12/22 12:41:51;;;;;;;65.93;36.10;;;4.90;99.90;;;;;;5030535;28;20033;-77
2022/12/22 12:44:21;;;;;;;66.65;34.10;;;4.90;99.90;;;;;;5031106;28;20047;-78
2022/12/22 12:46:51;;;;;;;72.45;34.10;;;4.80;99.90;;;;;;5031209;28;20032;-76
2022/12/22 12:49:35;;;;;;;61.72;33.92;;;4.70;99.90;;;;;;5030344;28;20502;-77
2022/12/22 12:52:03;;;;;;;64.43;34.55;;;4.60;99.90;;;;;;5031036;28;20036;-78
2022/12/22 12:54:29;;;;;;;62.60;33.60;;;4.50;99.90;;;;;;5032120;28;20506;-78
2022/12/22 12:57:00;;;;;;;;;;;4.50;99.90;;;;;;5032668;28;20030;-77
2022/12/22 12:59:42;;;;;;;68.32;32.85;;;4.40;99.90;;;;;;5031477;28;20003;-77
2022/12/22 13:02:32;;;;;;;67.22;35.13;;;4.40;99.90;;;;;;5031012;28;20036;-77
2022/12/22 13:05:13;;;;;;;68.28;35.60;;;4.40;99.90;;;;;;5022599;28;20030;-77
2022/12/22 13:08:14;;;;;;;66.93;34.50;;;4.40;99.90;;;;;;5031091;28;20087;-77
2022/12/22 13:10:52;;;;;;;70.72;37.72;;;4.30;99.90;;;;;;5032928;28;20100;-77
2022/12/22 13:13:20;;;;;;;73.72;38.83;;;4.30;99.90;;;;;;5031654;28;20049;-77
2022/12/22 13:15:47;;;;;;;68.75;37.40;;;4.30;99.90;;;;;;5032275;28;20022;-77
2022/12/22 13:18:28;;;;;;;71.28;37.45;;;4.30;99.90;;;;;;5033259;28;20075;-78
2022/12/22 13:21:07;;;;;;;76.18;40.60;;;4.30;99.90;;;;;;5035929;28;20106;-79
2022/12/22 13:23:39;;;;;;;70.88;39.65;;;4.30;99.90;;;;;;5030716;28;20037;-77
2022/12/22 13:26:13;;;;;;;72.82;39.20;;;4.20;99.90;;;;;;5031096;28;20029;-77
2022/12/22 13:28:42;;;;;;;69.63;39.30;;;4.20;99.90;;;;;;5029628;28;20413;-77
2022/12/22 13:31:33;;;;;;;73.65;41.35;;;4.10;99.90;;;;;;5029430;28;20083;-77
2022/12/22 13:34:28;;;;;;;69.40;39.88;;;4.10;99.90;;;;;;5030919;28;20076;-77
2022/12/22 13:36:57;;;;;;;71.50;37.15;;;4.10;99.90;;;;;;5029214;28;20021;-77
2022/12/22 13:39:22;;;;;;;71.38;39.58;;;4.10;99.90;;;;;;5045969;28;20405;-77
2022/12/22 13:41:49;;;;;;;;;;;4.00;99.90;;;;;;5029539;28;20037;-77
2022/12/22 13:44:20;;;;;;;73.30;35.42;;;4.00;99.90;;;;;;5030042;28;19909;-77
2022/12/22 13:46:46;;;;;;;71.03;36.28;;;3.90;99.90;;;;;;5029556;28;20025;-78
2022/12/22 13:49:14;;;;;;;;;;;4.00;99.90;;;;;;5046480;28;20029;-78
2022/12/22 13:51:40;;;;;;;125.85;64.97;;;3.90;99.90;;;;;;5031161;28;19992;-77
2022/12/22 13:54:44;;;;;;;86.43;47.05;;;3.80;99.90;;;;;;5030753;28;20042;-77
2022/12/22 13:57:19;;;;;;;94.72;50.25;;;3.80;99.90;;;;;;5006910;28;20049;-77
2022/12/22 13:59:49;;;;;;;129.48;75.10;;;3.70;99.90;;;;;;5047150;28;20040;-77
2022/12/22 14:02:18;;;;;;;164.18;93.00;;;3.70;99.90;;;;;;5029777;28;20036;-76
2022/12/22 14:05:02;;;;;;;120.05;65.35;;;3.60;99.90;;;;;;5030313;28;20410;-77
2022/12/22 14:07:28;;;;;;;103.05;60.65;;;3.60;99.90;;;;;;5046828;28;20076;-76
2022/12/22 14:09:56;;;;;;;;;;;3.50;99.90;;;;;;5031270;28;20509;-77
2022/12/22 14:12:28;;;;;;;75.15;38.10;;;3.60;99.90;;;;;;5031147;28;19913;-76
2022/12/22 14:14:56;;;;;;;84.70;42.15;;;3.50;99.90;;;;;;5030070;28;20041;-76
2022/12/22 14:17:25;;;;;;;77.95;41.15;;;3.60;99.90;;;;;;5029448;28;20036;-76
2022/12/22 14:19:56;;;;;;;81.65;42.30;;;3.50;99.90;;;;;;5031617;28;20029;-77
2022/12/22 14:22:32;;;;;;;91.30;47.25;;;3.50;99.90;;;;;;5047136;28;20048;-76
2022/12/22 14:25:08;;;;;;;114.90;58.37;;;3.40;99.90;;;;;;5031338;28;20033;-76
2022/12/22 14:27:33;;;;;;;107.45;59.42;;;3.40;99.90;;;;;;5029222;28;20034;-76
2022/12/22 14:30:01;;;;;;;100.30;52.78;;;3.50;99.90;;;;;;5031881;28;20441;-76
2022/12/22 14:32:39;;;;;;;91.22;49.58;;;3.50;99.90;;;;;;5031940;28;20022;-77
2022/12/22 14:35:20;;;;;;;98.80;49.97;;;3.50;99.90;;;;;;5031223;28;20044;-76
2022/12/22 14:37:47;;;;;;;104.07;52.58;;;3.50;99.90;;;;;;5031833;28;20028;-76
2022/12/22 14:40:40;;;;;;;116.03;61.85;;;3.50;99.90;;;;;;5030103;28;20033;-76
2022/12/22 14:43:16;;;;;;;112.95;58.47;;;3.50;99.90;;;;;;5046666;28;20041;-76
2022/12/22 14:45:42;;;;;;;135.23;70.90;;;3.40;99.90;;;;;;5033729;28;20049;-76
2022/12/22 14:48:09;;;;;;;;;;;3.40;99.90;;;;;;5035921;28;20036;-77
2022/12/22 14:50:35;;;;;;;125.75;63.45;;;3.40;99.90;;;;;;5036001;28;19909;-76
2022/12/22 14:53:03;;;;;;;106.90;56.47;;;3.30;99.90;;;;;;5036381;28;20026;-76
2022/12/22 14:55:35;;;;;;;101.97;54.63;;;3.30;99.90;;;;;;5032605;28;20048;-76
2022/12/22 14:58:11;;;;;;;102.00;55.38;;;3.20;99.90;;;;;;5033112;28;20083;-77
2022/12/22 15:00:38;;;;;;;;;;;3.20;99.90;;;;;;5031236;28;20045;-77
2022/12/22 15:03:26;;;;;;;95.97;51.40;;;3.10;99.90;;;;;;5028123;28;19936;-78
2022/12/22 15:05:52;;;;;;;105.88;53.60;;;3.10;99.90;;;;;;5028762;28;20029;-77
2022/12/22 15:08:38;;;;;;;110.88;60.55;;;3.10;99.90;;;;;;5027954;28;20064;-77
2022/12/22 15:11:09;;;;;;;123.60;66.88;;;3.10;99.90;;;;;;5029034;28;20113;-76
2022/12/22 15:13:35;;;;;;;113.80;61.72;;;3.10;99.90;;;;;;5027424;28;20053;-76
2022/12/22 15:16:02;;;;;;;121.03;64.32;;;3.10;99.90;;;;;;5028214;28;20061;-76
2022/12/22 15:18:28;;;;;;;;;;;3.10;99.90;;;;;;5028076;28;20707;-77
2022/12/22 15:20:55;;;;;;;107.20;57.90;;;3.10;99.90;;;;;;5028871;28;19960;-76
2022/12/22 15:23:21;;;;;;;121.25;65.47;;;3.10;99.90;;;;;;5027821;28;20026;-76
2022/12/22 15:25:46;;;;;;;;;;;3.10;99.90;;;;;;5044860;28;20041;-77
2022/12/22 15:28:13;;;;;;;172.05;96.15;;;3.10;99.90;;;;;;5027721;28;19912;-79
2022/12/22 15:30:39;;;;;;;;;;;3.10;99.90;;;;;;5028465;28;20036;-76
2022/12/22 15:33:13;;;;;;;123.95;63.38;;;3.10;99.90;;;;;;5027919;28;20339;-76
2022/12/22 15:35:39;;;;;;;127.68;66.45;;;3.00;99.90;;;;;;5030012;28;20056;-76
2022/12/22 15:38:05;;;;;;;;;;;3.00;99.90;;;;;;5028891;28;20033;-77
2022/12/22 15:40:31;;;;;;;104.78;56.38;;;3.00;99.90;;;;;;5028666;28;19915;-77
2022/12/22 15:42:56;;;;;;;;;;;2.90;99.90;;;;;;5028867;28;20398;-79
2022/12/22 15:45:22;;;;;;;110.88;57.42;;;3.00;99.90;;;;;;5029661;28;20349;-79
2022/12/22 15:47:49;;;;;;;;;;;2.90;99.90;;;;;;5045192;28;20029;-77
2022/12/22 15:50:25;;;;;;;109.43;56.22;;;2.90;99.90;;;;;;5028888;28;19913;-77
2022/12/22 15:52:54;;;;;;;107.97;56.10;;;3.00;99.90;;;;;;5029924;28;20030;-76
2022/12/22 15:55:20;;;;;;;138.95;75.53;;;3.00;99.90;;;;;;5029065;28;20048;-77
2022/12/22 15:57:48;;;;;;;;;;;3.00;99.90;;;;;;5046131;28;20379;-77
2022/12/22 16:00:14;;;;;;;233.95;137.23;;;3.00;99.90;;;;;;5030637;28;19933;-76
2022/12/22 16:02:40;;;;;;;177.43;104.93;;;3.00;99.90;;;;;;5030789;28;20079;-76
2022/12/22 16:05:06;;;;;;;;;;;3.00;99.90;;;;;;5030393;28;20030;-77
2022/12/22 16:07:32;;;;;;;127.68;64.95;;;3.00;99.90;;;;;;5033070;28;20011;-76
2022/12/22 16:09:59;;;;;;;124.65;62.88;;;2.90;99.90;;;;;;5034048;28;20056;-76
2022/12/22 16:12:25;;;;;;;124.00;62.70;;;2.90;99.90;;;;;;5033674;28;20056;-76
2022/12/22 16:14:55;;;;;;;156.27;71.88;;;2.90;99.90;;;;;;5034729;28;20124;-77
2022/12/22 16:17:23;;;;;;;172.75;76.03;;;2.90;99.90;;;;;;5034309;28;20413;-79
2022/12/22 16:19:49;;;;;;;162.50;74.50;;;2.80;99.90;;;;;;5036383;28;20089;-78
2022/12/22 16:22:16;;;;;;;;;;;2.80;99.90;;;;;;5034940;28;20056;-77
2022/12/22 16:24:43;;;;;;;;;;;2.80;99.90;;;;;;5032581;28;19944;-77
2022/12/22 16:27:10;;;;;;;122.85;62.15;;;2.80;99.90;;;;;;5030465;28;19936;-76
2022/12/22 16:29:37;;;;;;;131.63;64.65;;;2.80;99.90;;;;;;5032660;28;20033;-77
2022/12/22 16:32:29;;;;;;;140.50;70.07;;;2.90;99.90;;;;;;5031119;28;20063;-78
2022/12/22 16:35:12;;;;;;;137.85;69.82;;;2.80;99.90;;;;;;5033670;28;20037;-78
2022/12/22 16:37:38;;;;;;;147.50;67.22;;;2.90;99.90;;;;;;5031430;28;20068;-78
2022/12/22 16:40:04;;;;;;;;;;;2.90;99.90;;;;;;5032670;28;20141;-76
2022/12/22 16:42:30;;;;;;;134.68;68.03;;;2.90;99.90;;;;;;5031871;28;19909;-78
2022/12/22 16:44:56;;;;;;;127.65;66.65;;;2.90;99.90;;;;;;5033125;28;20029;-78
2022/12/22 16:47:25;;;;;;;;;;;2.90;99.90;;;;;;5032312;28;20076;-78
2022/12/22 16:49:51;;;;;;;126.32;64.82;;;2.90;99.90;;;;;;5031700;28;19963;-78
2022/12/22 16:52:20;;;;;;;113.57;61.75;;;2.90;99.90;;;;;;5032368;28;20026;-78
2022/12/22 16:54:47;;;;;;;119.65;63.70;;;2.90;99.90;;;;;;5034262;28;20037;-77